BWG weather

Bowling Green Warren County Regional Airport
Bowling Green, Kentucky, United States

Public forecast

Using degrees Fahrenheit for public forecast. Weather courtesy of forecast.io.

Current aviation weather report (METAR) for Bowling Green Warren County Regional Airport

Retrieved 2019/10/16 22:53 UTC (45 minutes ago):

KBWG 162253Z AUTO VRB05G14KT 10SM OVC046 13/03 A3004 RMK AO2 SLP170 T01330033

Aviation forecast (TAF) for Bowling Green Warren County Regional Airport

Retrieved 2019/10/16 18:22 UTC (5 hours ago):

TAF KBWG 161720Z 1618/1718 31012KT P6SM SCT040 FM170000 32005KT P6SM FEW040